sensor_id;sensor_type;location;lat;lon;timestamp;temperature;humidity
20438;DHT22;17436;50.338;8.810;2022-09-27T00:01:12;11.80;99.90
20438;DHT22;17436;50.338;8.810;2022-09-27T00:03:39;11.90;99.90
20438;DHT22;17436;50.338;8.810;2022-09-27T00:06:09;12.00;99.90
20438;DHT22;17436;50.338;8.810;2022-09-27T00:08:38;11.90;99.90
20438;DHT22;17436;50.338;8.810;2022-09-27T00:11:06;11.90;99.90
20438;DHT22;17436;50.338;8.810;2022-09-27T00:13:33;11.90;99.90
20438;DHT22;17436;50.338;8.810;2022-09-27T00:16:02;11.90;99.90
20438;DHT22;17436;50.338;8.810;2022-09-27T00:18:32;11.90;99.90
20438;DHT22;17436;50.338;8.810;2022-09-27T00:21:04;11.80;99.90
20438;DHT22;17436;50.338;8.810;2022-09-27T00:23:31;11.70;99.90
20438;DHT22;17436;50.338;8.810;2022-09-27T00:25:58;11.60;99.90
20438;DHT22;17436;50.338;8.810;2022-09-27T00:28:26;11.70;99.90
20438;DHT22;17436;50.338;8.810;2022-09-27T00:30:52;11.60;99.90
20438;DHT22;17436;50.338;8.810;2022-09-27T00:33:19;11.50;99.90
20438;DHT22;17436;50.338;8.810;2022-09-27T00:35:47;11.60;99.90
20438;DHT22;17436;50.338;8.810;2022-09-27T00:38:14;11.60;99.90
20438;DHT22;17436;50.338;8.810;2022-09-27T00:40:41;11.70;99.90
20438;DHT22;17436;50.338;8.810;2022-09-27T00:43:15;11.60;99.90
20438;DHT22;17436;50.338;8.810;2022-09-27T00:45:43;11.60;99.90
20438;DHT22;17436;50.338;8.810;2022-09-27T00:48:15;11.40;99.90
20438;DHT22;17436;50.338;8.810;2022-09-27T00:50:48;11.40;99.90
20438;DHT22;17436;50.338;8.810;2022-09-27T00:53:20;11.40;99.90
20438;DHT22;17436;50.338;8.810;2022-09-27T00:55:51;11.60;99.90
20438;DHT22;17436;50.338;8.810;2022-09-27T00:58:21;11.80;99.90
20438;DHT22;17436;50.338;8.810;2022-09-27T01:00:51;11.80;99.90
20438;DHT22;17436;50.338;8.810;2022-09-27T01:03:25;11.60;99.90
20438;DHT22;17436;50.338;8.810;2022-09-27T01:05:57;11.60;99.90
20438;DHT22;17436;50.338;8.810;2022-09-27T01:08:24;11.60;99.90
20438;DHT22;17436;50.338;8.810;2022-09-27T01:10:59;11.70;99.90
20438;DHT22;17436;50.338;8.810;2022-09-27T01:13:36;11.60;99.90
20438;DHT22;17436;50.338;8.810;2022-09-27T01:16:11;11.70;99.90
20438;DHT22;17436;50.338;8.810;2022-09-27T01:18:47;11.60;99.90
20438;DHT22;17436;50.338;8.810;2022-09-27T01:21:32;11.70;99.90
20438;DHT22;17436;50.338;8.810;2022-09-27T01:27:31;11.70;99.90
20438;DHT22;17436;50.338;8.810;2022-09-27T01:30:20;11.70;99.90
20438;DHT22;17436;50.338;8.810;2022-09-27T01:32:51;11.80;99.90
20438;DHT22;17436;50.338;8.810;2022-09-27T01:35:25;11.80;99.90
20438;DHT22;17436;50.338;8.810;2022-09-27T01:38:04;11.80;99.90
20438;DHT22;17436;50.338;8.810;2022-09-27T01:40:38;11.80;99.90
20438;DHT22;17436;50.338;8.810;2022-09-27T01:43:12;11.80;99.90
20438;DHT22;17436;50.338;8.810;2022-09-27T01:45:44;11.90;99.90
20438;DHT22;17436;50.338;8.810;2022-09-27T01:48:18;12.10;99.90
20438;DHT22;17436;50.338;8.810;2022-09-27T01:50:49;11.80;99.90
20438;DHT22;17436;50.338;8.810;2022-09-27T01:53:20;11.70;99.90
20438;DHT22;17436;50.338;8.810;2022-09-27T01:55:50;11.80;99.90
20438;DHT22;17436;50.338;8.810;2022-09-27T01:58:23;11.70;99.90
20438;DHT22;17436;50.338;8.810;2022-09-27T02:00:54;11.70;99.90
20438;DHT22;17436;50.338;8.810;2022-09-27T02:03:24;11.80;99.90
20438;DHT22;17436;50.338;8.810;2022-09-27T02:06:01;11.70;99.90
20438;DHT22;17436;50.338;8.810;2022-09-27T02:08:35;11.60;99.90
20438;DHT22;17436;50.338;8.810;2022-09-27T02:11:06;11.90;99.90
20438;DHT22;17436;50.338;8.810;2022-09-27T02:13:38;11.80;99.90
20438;DHT22;17436;50.338;8.810;2022-09-27T02:16:19;11.70;99.90
20438;DHT22;17436;50.338;8.810;2022-09-27T02:18:53;11.70;99.90
20438;DHT22;17436;50.338;8.810;2022-09-27T02:21:24;11.90;99.90
20438;DHT22;17436;50.338;8.810;2022-09-27T02:23:57;11.90;99.90
20438;DHT22;17436;50.338;8.810;2022-09-27T02:26:30;11.90;99.90
20438;DHT22;17436;50.338;8.810;2022-09-27T02:29:02;11.70;99.90
20438;DHT22;17436;50.338;8.810;2022-09-27T02:31:31;11.70;99.90
20438;DHT22;17436;50.338;8.810;2022-09-27T02:34:02;11.60;99.90
20438;DHT22;17436;50.338;8.810;2022-09-27T02:36:30;11.50;99.90
20438;DHT22;17436;50.338;8.810;2022-09-27T02:38:56;11.50;99.90
20438;DHT22;17436;50.338;8.810;2022-09-27T02:41:24;11.50;99.90
20438;DHT22;17436;50.338;8.810;2022-09-27T02:43:53;11.50;99.90
20438;DHT22;17436;50.338;8.810;2022-09-27T02:46:37;11.50;99.90
20438;DHT22;17436;50.338;8.810;2022-09-27T02:49:16;11.60;99.90
20438;DHT22;17436;50.338;8.810;2022-09-27T02:51:55;11.60;99.90
20438;DHT22;17436;50.338;8.810;2022-09-27T02:54:34;11.60;99.90
20438;DHT22;17436;50.338;8.810;2022-09-27T02:57:11;11.60;99.90
20438;DHT22;17436;50.338;8.810;2022-09-27T02:59:49;11.50;99.90
20438;DHT22;17436;50.338;8.810;2022-09-27T03:02:29;11.50;99.90
20438;DHT22;17436;50.338;8.810;2022-09-27T03:05:00;11.50;99.90
20438;DHT22;17436;50.338;8.810;2022-09-27T03:07:28;11.50;99.90
20438;DHT22;17436;50.338;8.810;2022-09-27T03:09:55;11.60;99.90
20438;DHT22;17436;50.338;8.810;2022-09-27T03:12:22;11.50;99.90
20438;DHT22;17436;50.338;8.810;2022-09-27T03:14:51;11.40;99.90
20438;DHT22;17436;50.338;8.810;2022-09-27T03:17:17;11.30;99.90
20438;DHT22;17436;50.338;8.810;2022-09-27T03:19:45;11.30;99.90
20438;DHT22;17436;50.338;8.810;2022-09-27T03:22:12;11.30;99.90
20438;DHT22;17436;50.338;8.810;2022-09-27T03:24:39;11.50;99.90
20438;DHT22;17436;50.338;8.810;2022-09-27T03:27:06;11.40;99.90
20438;DHT22;17436;50.338;8.810;2022-09-27T03:29:34;11.60;99.90
20438;DHT22;17436;50.338;8.810;2022-09-27T03:32:01;11.50;99.90
20438;DHT22;17436;50.338;8.810;2022-09-27T03:34:28;11.40;99.90
20438;DHT22;17436;50.338;8.810;2022-09-27T03:36:56;11.40;99.90
20438;DHT22;17436;50.338;8.810;2022-09-27T03:39:22;11.30;99.90
20438;DHT22;17436;50.338;8.810;2022-09-27T03:41:49;11.30;99.90
20438;DHT22;17436;50.338;8.810;2022-09-27T03:44:16;11.10;99.90
20438;DHT22;17436;50.338;8.810;2022-09-27T03:46:42;11.40;99.90
20438;DHT22;17436;50.338;8.810;2022-09-27T03:49:09;11.40;99.90
20438;DHT22;17436;50.338;8.810;2022-09-27T03:51:36;11.40;99.90
20438;DHT22;17436;50.338;8.810;2022-09-27T03:54:04;11.60;99.90
20438;DHT22;17436;50.338;8.810;2022-09-27T03:56:30;11.60;99.90
20438;DHT22;17436;50.338;8.810;2022-09-27T03:58:58;11.40;99.80
20438;DHT22;17436;50.338;8.810;2022-09-27T04:01:26;11.40;99.90
20438;DHT22;17436;50.338;8.810;2022-09-27T04:03:53;11.40;99.90
20438;DHT22;17436;50.338;8.810;2022-09-27T04:06:21;11.40;99.90
20438;DHT22;17436;50.338;8.810;2022-09-27T04:08:48;11.50;99.00
20438;DHT22;17436;50.338;8.810;2022-09-27T04:11:17;11.60;98.90
20438;DHT22;17436;50.338;8.810;2022-09-27T04:13:43;11.20;99.90
20438;DHT22;17436;50.338;8.810;2022-09-27T04:16:11;11.50;98.90
20438;DHT22;17436;50.338;8.810;2022-09-27T04:18:38;11.40;97.50
20438;DHT22;17436;50.338;8.810;2022-09-27T04:21:07;11.40;98.80
20438;DHT22;17436;50.338;8.810;2022-09-27T04:23:34;11.50;99.00
20438;DHT22;17436;50.338;8.810;2022-09-27T04:26:01;11.60;97.20
20438;DHT22;17436;50.338;8.810;2022-09-27T04:28:29;11.50;98.80
20438;DHT22;17436;50.338;8.810;2022-09-27T04:30:56;11.40;97.60
20438;DHT22;17436;50.338;8.810;2022-09-27T04:33:23;11.20;98.70
20438;DHT22;17436;50.338;8.810;2022-09-27T04:35:50;11.50;98.80
20438;DHT22;17436;50.338;8.810;2022-09-27T04:38:34;11.20;99.30
20438;DHT22;17436;50.338;8.810;2022-09-27T04:41:00;11.10;99.80
20438;DHT22;17436;50.338;8.810;2022-09-27T04:43:29;11.10;99.90
20438;DHT22;17436;50.338;8.810;2022-09-27T04:45:55;11.20;99.20
20438;DHT22;17436;50.338;8.810;2022-09-27T04:48:22;11.10;99.90
20438;DHT22;17436;50.338;8.810;2022-09-27T04:50:55;10.90;99.90
20438;DHT22;17436;50.338;8.810;2022-09-27T04:53:22;10.90;99.90
20438;DHT22;17436;50.338;8.810;2022-09-27T04:55:49;10.90;99.90
20438;DHT22;17436;50.338;8.810;2022-09-27T04:58:15;11.00;99.90
20438;DHT22;17436;50.338;8.810;2022-09-27T05:00:45;11.30;99.90
20438;DHT22;17436;50.338;8.810;2022-09-27T05:03:12;11.10;99.20
20438;DHT22;17436;50.338;8.810;2022-09-27T05:05:39;11.10;99.60
20438;DHT22;17436;50.338;8.810;2022-09-27T05:08:06;11.20;99.90
20438;DHT22;17436;50.338;8.810;2022-09-27T05:10:33;11.20;98.70
20438;DHT22;17436;50.338;8.810;2022-09-27T05:12:59;11.00;99.60
20438;DHT22;17436;50.338;8.810;2022-09-27T05:15:26;11.10;99.30
20438;DHT22;17436;50.338;8.810;2022-09-27T05:17:54;11.10;99.90
20438;DHT22;17436;50.338;8.810;2022-09-27T05:20:22;11.20;99.90
20438;DHT22;17436;50.338;8.810;2022-09-27T05:22:49;11.40;99.50
20438;DHT22;17436;50.338;8.810;2022-09-27T05:25:17;11.40;97.60
20438;DHT22;17436;50.338;8.810;2022-09-27T05:27:44;11.30;98.20
20438;DHT22;17436;50.338;8.810;2022-09-27T05:30:11;11.00;99.50
20438;DHT22;17436;50.338;8.810;2022-09-27T05:32:39;11.00;99.90
20438;DHT22;17436;50.338;8.810;2022-09-27T05:35:09;11.00;99.90
20438;DHT22;17436;50.338;8.810;2022-09-27T05:37:36;11.10;98.80
20438;DHT22;17436;50.338;8.810;2022-09-27T05:40:05;11.30;97.90
20438;DHT22;17436;50.338;8.810;2022-09-27T05:42:32;10.90;98.60
20438;DHT22;17436;50.338;8.810;2022-09-27T05:45:00;10.90;99.50
20438;DHT22;17436;50.338;8.810;2022-09-27T05:47:27;11.20;99.10
20438;DHT22;17436;50.338;8.810;2022-09-27T05:49:54;11.10;98.20
20438;DHT22;17436;50.338;8.810;2022-09-27T05:52:22;11.20;99.40
20438;DHT22;17436;50.338;8.810;2022-09-27T05:54:49;11.10;98.90
20438;DHT22;17436;50.338;8.810;2022-09-27T05:57:17;11.10;99.10
20438;DHT22;17436;50.338;8.810;2022-09-27T05:59:44;11.00;99.30
20438;DHT22;17436;50.338;8.810;2022-09-27T06:02:11;11.20;99.90
20438;DHT22;17436;50.338;8.810;2022-09-27T06:04:38;11.10;98.70
20438;DHT22;17436;50.338;8.810;2022-09-27T06:07:04;11.20;98.10
20438;DHT22;17436;50.338;8.810;2022-09-27T06:09:32;11.30;97.60
20438;DHT22;17436;50.338;8.810;2022-09-27T06:11:59;11.40;96.40
20438;DHT22;17436;50.338;8.810;2022-09-27T06:14:26;11.20;95.60
20438;DHT22;17436;50.338;8.810;2022-09-27T06:16:53;11.10;96.60
20438;DHT22;17436;50.338;8.810;2022-09-27T06:19:20;11.20;97.80
20438;DHT22;17436;50.338;8.810;2022-09-27T06:21:48;11.20;97.20
20438;DHT22;17436;50.338;8.810;2022-09-27T06:24:16;11.30;96.70
20438;DHT22;17436;50.338;8.810;2022-09-27T06:26:45;11.40;96.10
20438;DHT22;17436;50.338;8.810;2022-09-27T06:29:12;11.10;97.00
20438;DHT22;17436;50.338;8.810;2022-09-27T06:31:38;11.30;96.80
20438;DHT22;17436;50.338;8.810;2022-09-27T06:34:05;11.20;96.40
20438;DHT22;17436;50.338;8.810;2022-09-27T06:36:32;11.20;96.40
20438;DHT22;17436;50.338;8.810;2022-09-27T06:38:59;11.20;97.40
20438;DHT22;17436;50.338;8.810;2022-09-27T06:41:26;11.20;98.40
20438;DHT22;17436;50.338;8.810;2022-09-27T06:43:54;11.30;97.50
20438;DHT22;17436;50.338;8.810;2022-09-27T06:46:21;11.60;96.00
20438;DHT22;17436;50.338;8.810;2022-09-27T06:48:47;11.40;95.70
20438;DHT22;17436;50.338;8.810;2022-09-27T06:51:14;11.40;96.00
20438;DHT22;17436;50.338;8.810;2022-09-27T06:53:41;11.60;95.70
20438;DHT22;17436;50.338;8.810;2022-09-27T06:56:07;11.50;94.70
20438;DHT22;17436;50.338;8.810;2022-09-27T06:58:34;11.30;95.50
20438;DHT22;17436;50.338;8.810;2022-09-27T07:01:20;11.60;95.70
20438;DHT22;17436;50.338;8.810;2022-09-27T07:03:49;11.70;93.80
20438;DHT22;17436;50.338;8.810;2022-09-27T07:06:17;11.80;92.80
20438;DHT22;17436;50.338;8.810;2022-09-27T07:08:49;11.70;93.70
20438;DHT22;17436;50.338;8.810;2022-09-27T07:11:16;11.70;91.80
20438;DHT22;17436;50.338;8.810;2022-09-27T07:13:43;11.70;91.00
20438;DHT22;17436;50.338;8.810;2022-09-27T07:16:10;11.50;91.00
20438;DHT22;17436;50.338;8.810;2022-09-27T07:18:40;11.60;91.20
20438;DHT22;17436;50.338;8.810;2022-09-27T07:21:06;11.60;90.30
20438;DHT22;17436;50.338;8.810;2022-09-27T07:23:34;11.80;89.80
20438;DHT22;17436;50.338;8.810;2022-09-27T07:26:01;11.50;91.00
20438;DHT22;17436;50.338;8.810;2022-09-27T07:28:33;11.40;90.90
20438;DHT22;17436;50.338;8.810;2022-09-27T07:31:00;11.30;91.80
20438;DHT22;17436;50.338;8.810;2022-09-27T07:33:28;11.30;92.70
20438;DHT22;17436;50.338;8.810;2022-09-27T07:35:56;11.30;92.20
20438;DHT22;17436;50.338;8.810;2022-09-27T07:38:23;11.30;92.10
20438;DHT22;17436;50.338;8.810;2022-09-27T07:40:50;11.50;90.30
20438;DHT22;17436;50.338;8.810;2022-09-27T07:43:17;11.50;90.60
20438;DHT22;17436;50.338;8.810;2022-09-27T07:45:45;11.50;90.20
20438;DHT22;17436;50.338;8.810;2022-09-27T07:48:13;11.40;88.00
20438;DHT22;17436;50.338;8.810;2022-09-27T07:50:40;11.40;90.90
20438;DHT22;17436;50.338;8.810;2022-09-27T07:53:09;11.50;91.30
20438;DHT22;17436;50.338;8.810;2022-09-27T07:55:37;11.50;91.00
20438;DHT22;17436;50.338;8.810;2022-09-27T07:58:05;11.60;89.30
20438;DHT22;17436;50.338;8.810;2022-09-27T08:00:33;11.70;87.40
20438;DHT22;17436;50.338;8.810;2022-09-27T08:03:04;11.80;88.60
20438;DHT22;17436;50.338;8.810;2022-09-27T08:05:32;11.80;85.30
20438;DHT22;17436;50.338;8.810;2022-09-27T08:07:59;11.90;84.50
20438;DHT22;17436;50.338;8.810;2022-09-27T08:10:28;12.00;83.00
20438;DHT22;17436;50.338;8.810;2022-09-27T08:12:55;12.00;81.10
20438;DHT22;17436;50.338;8.810;2022-09-27T08:15:22;12.10;81.80
20438;DHT22;17436;50.338;8.810;2022-09-27T08:17:49;11.90;78.30
20438;DHT22;17436;50.338;8.810;2022-09-27T08:20:16;12.00;82.60
20438;DHT22;17436;50.338;8.810;2022-09-27T08:22:42;12.10;76.40
20438;DHT22;17436;50.338;8.810;2022-09-27T08:25:10;12.10;76.00
20438;DHT22;17436;50.338;8.810;2022-09-27T08:27:40;12.20;71.10
20438;DHT22;17436;50.338;8.810;2022-09-27T08:30:07;12.10;76.60
20438;DHT22;17436;50.338;8.810;2022-09-27T08:32:34;12.10;73.30
20438;DHT22;17436;50.338;8.810;2022-09-27T08:35:01;12.20;75.40
20438;DHT22;17436;50.338;8.810;2022-09-27T08:37:28;12.20;74.00
20438;DHT22;17436;50.338;8.810;2022-09-27T08:39:54;12.40;69.40
20438;DHT22;17436;50.338;8.810;2022-09-27T08:42:30;12.40;69.50
20438;DHT22;17436;50.338;8.810;2022-09-27T08:45:04;12.40;69.10
20438;DHT22;17436;50.338;8.810;2022-09-27T08:47:35;12.50;67.70
20438;DHT22;17436;50.338;8.810;2022-09-27T08:50:18;12.50;67.60
20438;DHT22;17436;50.338;8.810;2022-09-27T08:52:49;12.20;72.20
20438;DHT22;17436;50.338;8.810;2022-09-27T08:55:23;12.00;76.90
20438;DHT22;17436;50.338;8.810;2022-09-27T08:57:54;12.00;73.60
20438;DHT22;17436;50.338;8.810;2022-09-27T09:00:23;12.30;73.40
20438;DHT22;17436;50.338;8.810;2022-09-27T09:02:50;12.20;71.30
20438;DHT22;17436;50.338;8.810;2022-09-27T09:05:22;12.10;72.10
20438;DHT22;17436;50.338;8.810;2022-09-27T09:07:59;12.20;69.70
20438;DHT22;17436;50.338;8.810;2022-09-27T09:10:36;12.00;69.20
20438;DHT22;17436;50.338;8.810;2022-09-27T09:13:33;12.20;70.50
20438;DHT22;17436;50.338;8.810;2022-09-27T09:16:09;12.20;69.70
20438;DHT22;17436;50.338;8.810;2022-09-27T09:18:53;12.30;72.30
20438;DHT22;17436;50.338;8.810;2022-09-27T09:21:26;12.50;65.70
20438;DHT22;17436;50.338;8.810;2022-09-27T09:24:10;12.60;67.00
20438;DHT22;17436;50.338;8.810;2022-09-27T09:26:49;12.90;67.40
20438;DHT22;17436;50.338;8.810;2022-09-27T09:29:35;13.30;62.50
20438;DHT22;17436;50.338;8.810;2022-09-27T09:32:15;13.70;61.40
20438;DHT22;17436;50.338;8.810;2022-09-27T09:34:52;14.90;50.90
20438;DHT22;17436;50.338;8.810;2022-09-27T09:37:22;14.80;34.20
20438;DHT22;17436;50.338;8.810;2022-09-27T09:39:51;14.90;34.30
20438;DHT22;17436;50.338;8.810;2022-09-27T09:42:25;14.40;30.90
20438;DHT22;17436;50.338;8.810;2022-09-27T09:45:00;14.20;34.10
20438;DHT22;17436;50.338;8.810;2022-09-27T09:47:34;14.00;40.80
20438;DHT22;17436;50.338;8.810;2022-09-27T09:50:04;14.00;36.20
20438;DHT22;17436;50.338;8.810;2022-09-27T09:52:39;13.70;34.40
20438;DHT22;17436;50.338;8.810;2022-09-27T09:55:14;13.50;35.10
20438;DHT22;17436;50.338;8.810;2022-09-27T09:57:53;13.50;33.90
20438;DHT22;17436;50.338;8.810;2022-09-27T10:00:29;13.40;36.80
20438;DHT22;17436;50.338;8.810;2022-09-27T10:02:59;13.50;38.40
20438;DHT22;17436;50.338;8.810;2022-09-27T10:05:27;13.50;41.80
20438;DHT22;17436;50.338;8.810;2022-09-27T10:07:57;13.40;38.50
20438;DHT22;17436;50.338;8.810;2022-09-27T10:10:24;13.30;39.00
20438;DHT22;17436;50.338;8.810;2022-09-27T10:12:51;13.10;38.90
20438;DHT22;17436;50.338;8.810;2022-09-27T10:15:20;13.00;41.00
20438;DHT22;17436;50.338;8.810;2022-09-27T10:17:48;13.10;40.30
20438;DHT22;17436;50.338;8.810;2022-09-27T10:20:24;13.20;38.70
20438;DHT22;17436;50.338;8.810;2022-09-27T10:22:54;13.30;41.70
20438;DHT22;17436;50.338;8.810;2022-09-27T10:25:24;13.30;39.20
20438;DHT22;17436;50.338;8.810;2022-09-27T10:27:53;13.30;40.90
20438;DHT22;17436;50.338;8.810;2022-09-27T10:30:24;13.30;35.80
20438;DHT22;17436;50.338;8.810;2022-09-27T10:32:53;13.30;36.70
20438;DHT22;17436;50.338;8.810;2022-09-27T10:35:33;13.30;36.30
20438;DHT22;17436;50.338;8.810;2022-09-27T10:38:19;13.00;36.80
20438;DHT22;17436;50.338;8.810;2022-09-27T10:40:47;13.00;35.90
20438;DHT22;17436;50.338;8.810;2022-09-27T10:43:25;13.00;40.40
20438;DHT22;17436;50.338;8.810;2022-09-27T10:45:59;13.20;44.70
20438;DHT22;17436;50.338;8.810;2022-09-27T10:48:28;13.30;40.90
20438;DHT22;17436;50.338;8.810;2022-09-27T10:50:58;13.30;44.20
20438;DHT22;17436;50.338;8.810;2022-09-27T10:53:26;13.70;46.10
20438;DHT22;17436;50.338;8.810;2022-09-27T10:55:55;13.40;46.70
20438;DHT22;17436;50.338;8.810;2022-09-27T10:58:25;13.30;43.10
20438;DHT22;17436;50.338;8.810;2022-09-27T11:00:57;13.10;43.10
20438;DHT22;17436;50.338;8.810;2022-09-27T11:03:26;13.20;50.40
20438;DHT22;17436;50.338;8.810;2022-09-27T11:05:54;13.20;53.40
20438;DHT22;17436;50.338;8.810;2022-09-27T11:08:29;13.00;65.00
20438;DHT22;17436;50.338;8.810;2022-09-27T11:11:04;12.90;68.40
20438;DHT22;17436;50.338;8.810;2022-09-27T11:13:32;12.70;54.20
20438;DHT22;17436;50.338;8.810;2022-09-27T11:16:12;12.80;57.90
20438;DHT22;17436;50.338;8.810;2022-09-27T11:18:49;12.80;53.40
20438;DHT22;17436;50.338;8.810;2022-09-27T11:21:26;12.80;61.20
20438;DHT22;17436;50.338;8.810;2022-09-27T11:27:06;13.10;58.10
20438;DHT22;17436;50.338;8.810;2022-09-27T11:29:44;13.10;58.30
20438;DHT22;17436;50.338;8.810;2022-09-27T11:32:21;13.20;53.60
20438;DHT22;17436;50.338;8.810;2022-09-27T11:35:20;13.10;57.70
20438;DHT22;17436;50.338;8.810;2022-09-27T11:37:56;13.40;57.30
20438;DHT22;17436;50.338;8.810;2022-09-27T11:40:30;13.60;52.70
20438;DHT22;17436;50.338;8.810;2022-09-27T11:43:16;13.90;51.10
20438;DHT22;17436;50.338;8.810;2022-09-27T11:45:55;14.10;46.50
20438;DHT22;17436;50.338;8.810;2022-09-27T11:48:39;14.20;40.00
20438;DHT22;17436;50.338;8.810;2022-09-27T11:51:14;14.20;41.70
20438;DHT22;17436;50.338;8.810;2022-09-27T11:54:04;14.10;42.80
20438;DHT22;17436;50.338;8.810;2022-09-27T11:56:43;14.30;43.20
20438;DHT22;17436;50.338;8.810;2022-09-27T11:59:41;14.40;38.60
20438;DHT22;17436;50.338;8.810;2022-09-27T12:05:19;14.30;33.50
20438;DHT22;17436;50.338;8.810;2022-09-27T12:08:03;14.10;32.70
20438;DHT22;17436;50.338;8.810;2022-09-27T12:10:32;14.20;35.70
20438;DHT22;17436;50.338;8.810;2022-09-27T12:13:00;14.30;32.10
20438;DHT22;17436;50.338;8.810;2022-09-27T12:15:31;14.30;29.40
20438;DHT22;17436;50.338;8.810;2022-09-27T12:18:10;14.20;28.40
20438;DHT22;17436;50.338;8.810;2022-09-27T12:20:40;14.10;31.30
20438;DHT22;17436;50.338;8.810;2022-09-27T12:23:14;14.10;31.10
20438;DHT22;17436;50.338;8.810;2022-09-27T12:25:44;14.10;31.80
20438;DHT22;17436;50.338;8.810;2022-09-27T12:28:20;14.20;31.40
20438;DHT22;17436;50.338;8.810;2022-09-27T12:30:55;14.00;32.20
20438;DHT22;17436;50.338;8.810;2022-09-27T12:33:29;14.00;35.20
20438;DHT22;17436;50.338;8.810;2022-09-27T12:36:03;14.00;32.50
20438;DHT22;17436;50.338;8.810;2022-09-27T12:38:38;13.70;34.40
20438;DHT22;17436;50.338;8.810;2022-09-27T12:41:10;13.60;35.70
20438;DHT22;17436;50.338;8.810;2022-09-27T12:43:43;13.40;34.80
20438;DHT22;17436;50.338;8.810;2022-09-27T12:46:17;13.40;36.10
20438;DHT22;17436;50.338;8.810;2022-09-27T12:48:52;13.30;34.80
20438;DHT22;17436;50.338;8.810;2022-09-27T12:51:22;13.50;37.50
20438;DHT22;17436;50.338;8.810;2022-09-27T12:53:59;13.80;39.80
20438;DHT22;17436;50.338;8.810;2022-09-27T12:56:41;13.90;38.30
20438;DHT22;17436;50.338;8.810;2022-09-27T13:08:18;13.90;36.60
20438;DHT22;17436;50.338;8.810;2022-09-27T13:10:55;13.90;36.30
20438;DHT22;17436;50.338;8.810;2022-09-27T13:13:24;14.00;38.30
20438;DHT22;17436;50.338;8.810;2022-09-27T13:15:56;14.10;37.00
20438;DHT22;17436;50.338;8.810;2022-09-27T13:18:31;14.10;34.40
20438;DHT22;17436;50.338;8.810;2022-09-27T13:27:35;13.90;20.40
20438;DHT22;17436;50.338;8.810;2022-09-27T13:36:34;13.80;18.10
20438;DHT22;17436;50.338;8.810;2022-09-27T13:39:17;13.70;19.90
20438;DHT22;17436;50.338;8.810;2022-09-27T13:41:59;13.70;20.20
20438;DHT22;17436;50.338;8.810;2022-09-27T13:44:38;13.70;17.50
20438;DHT22;17436;50.338;8.810;2022-09-27T13:47:19;13.70;17.70
20438;DHT22;17436;50.338;8.810;2022-09-27T13:49:54;13.60;16.70
20438;DHT22;17436;50.338;8.810;2022-09-27T13:52:28;13.60;18.10
20438;DHT22;17436;50.338;8.810;2022-09-27T13:55:00;13.90;19.20
20438;DHT22;17436;50.338;8.810;2022-09-27T13:57:41;13.80;19.10
20438;DHT22;17436;50.338;8.810;2022-09-27T14:00:12;13.90;24.00
20438;DHT22;17436;50.338;8.810;2022-09-27T14:02:49;14.00;25.00
20438;DHT22;17436;50.338;8.810;2022-09-27T14:05:20;14.10;23.40
20438;DHT22;17436;50.338;8.810;2022-09-27T14:07:51;14.30;21.30
20438;DHT22;17436;50.338;8.810;2022-09-27T14:10:19;14.10;18.50
20438;DHT22;17436;50.338;8.810;2022-09-27T14:12:49;14.00;18.70
20438;DHT22;17436;50.338;8.810;2022-09-27T14:15:21;14.00;18.30
20438;DHT22;17436;50.338;8.810;2022-09-27T14:17:48;14.00;15.20
20438;DHT22;17436;50.338;8.810;2022-09-27T14:20:35;14.00;16.80
20438;DHT22;17436;50.338;8.810;2022-09-27T14:23:05;13.90;15.60
20438;DHT22;17436;50.338;8.810;2022-09-27T14:25:31;13.80;18.40
20438;DHT22;17436;50.338;8.810;2022-09-27T14:27:58;13.80;20.00
20438;DHT22;17436;50.338;8.810;2022-09-27T14:30:27;13.90;18.90
20438;DHT22;17436;50.338;8.810;2022-09-27T14:32:55;13.90;18.30
20438;DHT22;17436;50.338;8.810;2022-09-27T14:35:25;13.90;19.20
20438;DHT22;17436;50.338;8.810;2022-09-27T14:38:15;13.90;18.80
20438;DHT22;17436;50.338;8.810;2022-09-27T14:40:53;14.00;19.80
20438;DHT22;17436;50.338;8.810;2022-09-27T14:43:20;14.00;19.80
20438;DHT22;17436;50.338;8.810;2022-09-27T14:45:49;14.00;19.10
20438;DHT22;17436;50.338;8.810;2022-09-27T14:48:19;14.10;17.60
20438;DHT22;17436;50.338;8.810;2022-09-27T14:50:52;13.90;18.30
20438;DHT22;17436;50.338;8.810;2022-09-27T14:53:23;13.90;18.90
20438;DHT22;17436;50.338;8.810;2022-09-27T14:55:50;13.90;20.40
20438;DHT22;17436;50.338;8.810;2022-09-27T14:58:20;13.70;19.80
20438;DHT22;17436;50.338;8.810;2022-09-27T15:00:48;13.80;20.60
20438;DHT22;17436;50.338;8.810;2022-09-27T15:03:21;13.70;21.90
20438;DHT22;17436;50.338;8.810;2022-09-27T15:05:50;13.80;22.90
20438;DHT22;17436;50.338;8.810;2022-09-27T15:08:19;13.90;23.20
20438;DHT22;17436;50.338;8.810;2022-09-27T15:10:49;13.90;21.50
20438;DHT22;17436;50.338;8.810;2022-09-27T15:13:17;13.90;20.30
20438;DHT22;17436;50.338;8.810;2022-09-27T15:15:45;13.80;20.30
20438;DHT22;17436;50.338;8.810;2022-09-27T15:18:30;13.80;24.20
20438;DHT22;17436;50.338;8.810;2022-09-27T15:20:58;13.80;18.70
20438;DHT22;17436;50.338;8.810;2022-09-27T15:23:26;13.80;20.00
20438;DHT22;17436;50.338;8.810;2022-09-27T15:26:03;13.80;18.60
20438;DHT22;17436;50.338;8.810;2022-09-27T15:28:31;13.70;18.30
20438;DHT22;17436;50.338;8.810;2022-09-27T15:31:04;13.80;16.80
20438;DHT22;17436;50.338;8.810;2022-09-27T15:33:32;13.70;18.80
20438;DHT22;17436;50.338;8.810;2022-09-27T15:36:02;13.50;17.80
20438;DHT22;17436;50.338;8.810;2022-09-27T15:38:30;13.50;19.90
20438;DHT22;17436;50.338;8.810;2022-09-27T15:41:01;13.40;18.70
20438;DHT22;17436;50.338;8.810;2022-09-27T15:43:30;13.30;19.20
20438;DHT22;17436;50.338;8.810;2022-09-27T15:45:58;13.30;20.90
20438;DHT22;17436;50.338;8.810;2022-09-27T15:48:29;13.40;20.70
20438;DHT22;17436;50.338;8.810;2022-09-27T15:50:56;13.60;21.70
20438;DHT22;17436;50.338;8.810;2022-09-27T15:53:40;13.30;20.20
20438;DHT22;17436;50.338;8.810;2022-09-27T15:56:12;13.10;20.90
20438;DHT22;17436;50.338;8.810;2022-09-27T15:58:40;13.20;23.20
20438;DHT22;17436;50.338;8.810;2022-09-27T16:01:18;13.20;22.60
20438;DHT22;17436;50.338;8.810;2022-09-27T16:03:46;13.30;22.60
20438;DHT22;17436;50.338;8.810;2022-09-27T16:06:13;13.30;21.40
20438;DHT22;17436;50.338;8.810;2022-09-27T16:08:40;13.30;22.40
20438;DHT22;17436;50.338;8.810;2022-09-27T16:11:13;13.30;22.00
20438;DHT22;17436;50.338;8.810;2022-09-27T16:13:41;13.40;22.50
20438;DHT22;17436;50.338;8.810;2022-09-27T16:16:15;13.30;24.00
20438;DHT22;17436;50.338;8.810;2022-09-27T16:18:42;13.30;23.90
20438;DHT22;17436;50.338;8.810;2022-09-27T16:21:09;13.30;26.50
20438;DHT22;17436;50.338;8.810;2022-09-27T16:23:36;13.20;26.50
20438;DHT22;17436;50.338;8.810;2022-09-27T16:26:03;13.30;27.50